Time;durP1;ratioP1;P1;durP2;ratioP2;P2;SDS_P1;SDS_P2;PMS_P1;PMS_P2;Temp;Humidity;BMP_temperature;BMP_pressure;BME280_temperature;BME280_humidity;BME280_pressure;Samples;Min_cycle;Max_cycle;Signal;HPM_P1;HPM_P2
2023/01/01 00:00:07;;;;;;;31.27;22.20;;;;;;;-145.63;100.00;61273.97;4781728;30;20040;-67
2023/01/01 00:02:32;;;;;;;36.80;24.92;;;;;;;-145.63;100.00;61273.97;4781615;30;20036;-65
2023/01/01 00:04:58;;;;;;;32.90;22.58;;;;;;;-145.63;100.00;61273.97;4781452;30;20054;-66
2023/01/01 00:07:23;;;;;;;28.55;20.88;;;;;;;-145.63;100.00;61273.97;4781626;30;20055;-65
2023/01/01 00:12:34;;;;;;;30.80;21.42;;;;;;;-145.63;100.00;61273.97;4781571;30;20039;-67
2023/01/01 00:14:59;;;;;;;32.55;21.98;;;;;;;-145.63;100.00;61273.97;4781153;30;20036;-66
2023/01/01 00:17:25;;;;;;;34.40;23.73;;;;;;;-145.63;100.00;61273.97;4781412;30;20103;-66
2023/01/01 00:19:51;;;;;;;35.55;24.75;;;;;;;-145.63;100.00;61273.97;4781078;30;20039;-67
2023/01/01 00:22:17;;;;;;;34.72;25.17;;;;;;;-145.63;100.00;61273.97;4784213;30;20350;-68
2023/01/01 00:24:42;;;;;;;33.08;23.30;;;;;;;-145.63;100.00;61273.97;4781398;30;20042;-68
2023/01/01 00:27:08;;;;;;;32.42;22.42;;;;;;;-145.63;100.00;61273.97;4781280;30;20063;-68
2023/01/01 00:29:33;;;;;;;29.42;20.30;;;;;;;-145.63;100.00;61273.97;4781071;30;20097;-67
2023/01/01 00:31:59;;;;;;;32.83;20.23;;;;;;;-145.63;100.00;61273.97;4781057;30;20043;-68
2023/01/01 00:34:25;;;;;;;28.23;19.30;;;;;;;-145.63;100.00;61273.97;4781333;30;20345;-67
2023/01/01 00:36:51;;;;;;;28.73;19.95;;;;;;;-145.63;100.00;61273.97;4781332;30;20097;-67
2023/01/01 00:39:16;;;;;;;28.08;20.00;;;;;;;-145.63;100.00;61273.97;4781133;30;20086;-67
2023/01/01 00:41:42;;;;;;;29.25;18.98;;;;;;;-145.63;100.00;61273.97;4781120;30;20059;-66
2023/01/01 00:44:07;;;;;;;25.67;17.83;;;;;;;-145.63;100.00;61273.97;4780547;30;20477;-66
2023/01/01 00:46:33;;;;;;;25.27;17.65;;;;;;;-145.63;100.00;61273.97;4780868;30;20031;-67
2023/01/01 00:48:59;;;;;;;25.98;15.98;;;;;;;-145.63;100.00;61273.97;4764958;30;20055;-67
2023/01/01 00:51:24;;;;;;;22.95;16.30;;;;;;;-145.63;100.00;61273.97;4780775;30;20071;-67
2023/01/01 00:53:50;;;;;;;21.80;14.88;;;;;;;-145.63;100.00;61273.97;4788704;30;20192;-66
2023/01/01 00:56:16;;;;;;;22.67;16.48;;;;;;;-145.63;100.00;61273.97;4791430;29;20047;-67
2023/01/01 00:58:41;;;;;;;25.40;16.63;;;;;;;-145.63;100.00;61273.97;4779697;30;20035;-67
2023/01/01 01:01:07;;;;;;;24.50;16.92;;;;;;;-145.63;100.00;61273.97;4780482;30;20054;-66
2023/01/01 01:03:33;;;;;;;20.60;14.45;;;;;;;-145.63;100.00;61273.97;4780738;30;20047;-66
2023/01/01 01:06:01;;;;;;;20.77;15.48;;;;;;;-145.63;100.00;61273.97;4780457;30;20232;-66
2023/01/01 01:08:29;;;;;;;21.25;15.10;;;;;;;-145.63;100.00;61273.97;4780634;30;20450;-66
2023/01/01 01:10:55;;;;;;;21.83;16.13;;;;;;;-145.63;100.00;61273.97;4794273;30;20097;-66
2023/01/01 01:13:21;;;;;;;20.33;14.68;;;;;;;-145.63;100.00;61273.97;4780542;30;20085;-66
2023/01/01 01:15:47;;;;;;;20.60;13.63;;;;;;;-145.63;100.00;61273.97;4780163;30;20088;-66
2023/01/01 01:18:12;;;;;;;19.48;13.68;;;;;;;-145.63;100.00;61273.97;4780686;30;20094;-66
2023/01/01 01:20:38;;;;;;;19.52;13.07;;;;;;;-145.63;100.00;61273.97;4780423;30;20039;-66
2023/01/01 01:23:04;;;;;;;19.50;12.75;;;;;;;-145.63;100.00;61273.97;4784881;30;20342;-67
2023/01/01 01:25:29;;;;;;;16.77;12.10;;;;;;;-145.63;100.00;61273.97;4780402;30;20039;-66
2023/01/01 01:27:55;;;;;;;18.50;13.50;;;;;;;-145.63;100.00;61273.97;4780530;30;20259;-66
2023/01/01 01:30:21;;;;;;;16.67;11.10;;;;;;;-145.63;100.00;61273.97;4772775;30;20043;-66
2023/01/01 01:32:46;;;;;;;14.57;10.98;;;;;;;-145.63;100.00;61273.97;4777995;30;20219;-66
2023/01/01 01:35:12;;;;;;;15.70;12.07;;;;;;;-145.63;100.00;61273.97;4787823;30;20043;-66
2023/01/01 01:37:37;;;;;;;16.02;11.10;;;;;;;-145.63;100.00;61273.97;4788357;29;20095;-66
2023/01/01 01:40:04;;;;;;;15.60;11.35;;;;;;;-145.63;100.00;61273.97;4772177;30;20038;-66
2023/01/01 01:42:29;;;;;;;16.45;10.68;;;;;;;-145.63;100.00;61273.97;4787770;30;20042;-66
2023/01/01 01:44:58;;;;;;;14.07;10.55;;;;;;;-145.63;100.00;61273.97;4788087;30;20035;-65
2023/01/01 01:47:36;;;;;;;14.40;10.23;;;;;;;-145.63;100.00;61273.97;4788073;29;20059;-65
2023/01/01 01:50:09;;;;;;;13.57;9.23;;;;;;;-145.63;100.00;61273.97;4785382;29;20051;-65
2023/01/01 01:52:38;;;;;;;12.35;9.77;;;;;;;-145.63;100.00;61273.97;4787950;30;20316;-66
2023/01/01 01:55:07;;;;;;;12.02;9.02;;;;;;;-145.63;100.00;61273.97;4786491;30;20038;-65
2023/01/01 01:57:33;;;;;;;12.77;9.93;;;;;;;-145.63;100.00;61273.97;4783207;29;20081;-65
2023/01/01 02:00:00;;;;;;;13.52;9.65;;;;;;;-145.63;100.00;61273.97;4788115;29;20036;-66
2023/01/01 02:03:01;;;;;;;11.95;8.77;;;;;;;-145.63;100.00;61273.97;4788114;29;20024;-66
2023/01/01 02:05:28;;;;;;;11.80;8.52;;;;;;;-145.63;100.00;61273.97;4770260;30;20250;-64
2023/01/01 02:07:55;;;;;;;12.20;8.95;;;;;;;-145.63;100.00;61273.97;4780043;30;20229;-65
2023/01/01 02:10:20;;;;;;;13.27;9.95;;;;;;;-145.63;100.00;61273.97;4780324;30;20035;-65
2023/01/01 02:12:47;;;;;;;9.15;8.15;;;;;;;-145.63;100.00;61273.97;4779752;30;20103;-65
2023/01/01 02:15:48;;;;;;;10.18;8.77;;;;;;;-145.63;100.00;61273.97;4779384;30;20043;-65
2023/01/01 02:18:18;;;;;;;11.35;8.88;;;;;;;-145.63;100.00;61273.97;4780057;30;20095;-65
2023/01/01 02:20:55;;;;;;;9.95;8.45;;;;;;;-145.63;100.00;61273.97;4780111;30;20124;-65
2023/01/01 02:24:14;;;;;;;11.85;8.30;;;;;;;-145.63;100.00;61273.97;4784822;30;20047;-65
2023/01/01 02:27:04;;;;;;;10.88;8.32;;;;;;;-145.63;100.00;61273.97;4758027;30;20090;-65
2023/01/01 02:29:47;;;;;;;9.00;7.88;;;;;;;-145.63;100.00;61273.97;4780048;30;20039;-65
2023/01/01 02:32:28;;;;;;;10.05;7.95;;;;;;;-145.63;100.00;61273.97;4779791;30;20320;-66
2023/01/01 02:38:02;;;;;;;8.80;7.47;;;;;;;-145.63;100.00;61273.97;4779599;30;20091;-64
2023/01/01 02:40:28;;;;;;;10.23;7.45;;;;;;;-145.63;100.00;61273.97;4779829;30;20039;-65
2023/01/01 02:42:56;;;;;;;8.35;7.00;;;;;;;-145.63;100.00;61273.97;4779868;30;20032;-63
2023/01/01 02:45:22;;;;;;;7.60;6.72;;;;;;;-145.63;100.00;61273.97;4779843;30;20047;-64
2023/01/01 02:47:47;;;;;;;8.73;6.65;;;;;;;-145.63;100.00;61273.97;4779358;30;20051;-64
2023/01/01 02:50:21;;;;;;;8.90;7.35;;;;;;;-145.63;100.00;61273.97;4778733;30;20228;-64
2023/01/01 02:53:08;;;;;;;8.10;6.60;;;;;;;-145.63;100.00;61273.97;4779973;30;20043;-65
2023/01/01 02:55:44;;;;;;;7.85;6.30;;;;;;;-145.63;100.00;61273.97;4795695;30;20051;-65
2023/01/01 03:01:31;;;;;;;7.18;6.45;;;;;;;-145.63;100.00;61273.97;4760929;30;20232;-65
2023/01/01 03:04:04;;;;;;;8.10;6.90;;;;;;;-145.63;100.00;61273.97;4760936;30;20067;-65
2023/01/01 03:06:37;;;;;;;9.82;6.85;;;;;;;-145.63;100.00;61273.97;4776106;30;20168;-63
2023/01/01 03:09:30;;;;;;;7.25;6.53;;;;;;;-145.63;100.00;61273.97;4780778;30;20091;-63
2023/01/01 03:12:04;;;;;;;8.70;7.35;;;;;;;-145.63;100.00;61273.97;4781575;30;20048;-64
2023/01/01 03:14:43;;;;;;;8.50;6.85;;;;;;;-145.63;100.00;61273.97;4781740;30;20043;-64
2023/01/01 03:17:45;;;;;;;11.00;7.05;;;;;;;-145.63;100.00;61273.97;4781428;30;20059;-65
2023/01/01 03:20:21;;;;;;;7.00;6.30;;;;;;;-145.63;100.00;61273.97;4753512;30;20043;-65
2023/01/01 03:22:50;;;;;;;7.85;7.05;;;;;;;-145.63;100.00;61273.97;4786989;30;20031;-65
2023/01/01 03:25:21;;;;;;;7.72;6.93;;;;;;;-145.63;100.00;61273.97;4781845;30;20154;-65
2023/01/01 03:27:59;;;;;;;8.10;7.25;;;;;;;-145.63;100.00;61273.97;4781457;30;20040;-65
2023/01/01 03:30:26;;;;;;;8.10;6.80;;;;;;;-145.63;100.00;61273.97;4781420;30;20043;-64
2023/01/01 03:33:04;;;;;;;7.28;6.57;;;;;;;-145.63;100.00;61273.97;4781154;30;20070;-64
2023/01/01 03:35:48;;;;;;;8.00;6.90;;;;;;;-145.63;100.00;61273.97;4781268;30;20035;-64
2023/01/01 03:38:25;;;;;;;7.53;6.65;;;;;;;-145.63;100.00;61273.97;4781429;30;20060;-65
2023/01/01 03:40:56;;;;;;;7.85;6.72;;;;;;;-145.63;100.00;61273.97;4781197;30;20046;-65
2023/01/01 03:43:40;;;;;;;8.73;7.43;;;;;;;-145.63;100.00;61273.97;4781354;30;20058;-65
2023/01/01 03:46:07;;;;;;;7.47;6.68;;;;;;;-145.63;100.00;61273.97;4763256;30;20063;-64
2023/01/01 03:48:54;;;;;;;8.43;7.53;;;;;;;-145.63;100.00;61273.97;4736994;30;1271050;-65
2023/01/01 03:51:46;;;;;;;8.77;6.82;;;;;;;-145.63;100.00;61273.97;4782157;30;20351;-65
2023/01/01 03:54:18;;;;;;;8.10;7.18;;;;;;;-145.63;100.00;61273.97;4793759;30;20346;-64
2023/01/01 03:56:51;;;;;;;8.80;6.63;;;;;;;-145.63;100.00;61273.97;4789421;29;20227;-67
2023/01/01 03:59:39;;;;;;;8.60;7.55;;;;;;;-145.63;100.00;61273.97;4780708;30;20047;-68
2023/01/01 04:02:10;;;;;;;9.35;7.55;;;;;;;-145.63;100.00;61273.97;4763765;30;20043;-66
2023/01/01 04:04:36;;;;;;;8.02;7.22;;;;;;;-145.63;100.00;61273.97;4781864;30;20038;-65
2023/01/01 04:07:02;;;;;;;8.43;7.35;;;;;;;-145.63;100.00;61273.97;4781935;30;20043;-66
2023/01/01 04:09:31;;;;;;;8.25;7.22;;;;;;;-145.63;100.00;61273.97;4781785;30;20115;-66
2023/01/01 04:12:02;;;;;;;8.48;6.72;;;;;;;-145.63;100.00;61273.97;4781617;30;20088;-66
2023/01/01 04:14:39;;;;;;;8.85;7.95;;;;;;;-145.63;100.00;61273.97;4781834;30;20042;-66
2023/01/01 04:17:07;;;;;;;10.68;7.88;;;;;;;-145.63;100.00;61273.97;4781621;30;20035;-66
2023/01/01 04:19:33;;;;;;;9.82;7.68;;;;;;;-145.63;100.00;61273.97;4780511;30;20098;-66
2023/01/01 04:21:59;;;;;;;8.73;7.65;;;;;;;-145.63;100.00;61273.97;4782538;30;20051;-66
2023/01/01 04:24:26;;;;;;;8.65;7.72;;;;;;;-145.63;100.00;61273.97;4785263;29;20038;-65
2023/01/01 04:26:52;;;;;;;10.57;8.05;;;;;;;-145.63;100.00;61273.97;4781543;30;20034;-65
2023/01/01 04:29:19;;;;;;;9.88;8.13;;;;;;;-145.63;100.00;61273.97;4781536;30;20043;-65
2023/01/01 04:31:45;;;;;;;9.93;7.53;;;;;;;-145.63;100.00;61273.97;4780545;30;20039;-65
2023/01/01 04:34:11;;;;;;;9.40;8.10;;;;;;;-145.63;100.00;61273.97;4781145;30;20044;-64
2023/01/01 04:36:36;;;;;;;9.27;7.38;;;;;;;-145.63;100.00;61273.97;4781302;30;20311;-65
2023/01/01 04:39:03;;;;;;;8.75;7.82;;;;;;;-145.63;100.00;61273.97;4781098;30;20205;-65
2023/01/01 04:41:28;;;;;;;10.32;8.15;;;;;;;-145.63;100.00;61273.97;4795063;29;20075;-65
2023/01/01 04:43:54;;;;;;;9.52;8.45;;;;;;;-145.63;100.00;61273.97;4780798;30;20035;-65
2023/01/01 04:46:21;;;;;;;9.52;8.05;;;;;;;-145.63;100.00;61273.97;4781217;30;20035;-65
2023/01/01 04:48:47;;;;;;;9.73;8.23;;;;;;;-145.63;100.00;61273.97;4781160;30;20044;-65
2023/01/01 04:51:15;;;;;;;11.32;8.85;;;;;;;-145.63;100.00;61273.97;4781207;30;20042;-65
2023/01/01 04:53:40;;;;;;;10.77;8.48;;;;;;;-145.63;100.00;61273.97;4789001;30;20043;-65
2023/01/01 04:56:12;;;;;;;10.75;8.05;;;;;;;-145.63;100.00;61273.97;4794468;29;20041;-66
2023/01/01 04:58:39;;;;;;;;;;;;;;;-145.63;100.00;61273.97;4781582;30;20043;-66
2023/01/01 05:01:06;;;;;;;11.27;9.25;;;;;;;-145.63;100.00;61273.97;4780836;30;19913;-65
2023/01/01 05:03:32;;;;;;;11.82;9.07;;;;;;;-145.63;100.00;61273.97;4780892;30;20031;-65
2023/01/01 05:06:05;;;;;;;9.75;8.73;;;;;;;-145.63;100.00;61273.97;4780730;30;20027;-64
2023/01/01 05:08:33;;;;;;;10.43;8.50;;;;;;;-145.63;100.00;61273.97;4780571;30;20101;-64
2023/01/01 05:11:04;;;;;;;10.13;8.43;;;;;;;-145.63;100.00;61273.97;4780633;30;20035;-65
2023/01/01 05:13:30;;;;;;;12.05;9.45;;;;;;;-145.63;100.00;61273.97;4779471;30;20028;-65
2023/01/01 05:15:56;;;;;;;9.93;8.07;;;;;;;-145.63;100.00;61273.97;4780511;30;20032;-66
2023/01/01 05:18:22;;;;;;;9.63;8.20;;;;;;;-145.63;100.00;61273.97;4779614;30;20046;-66
2023/01/01 05:20:47;;;;;;;9.70;7.90;;;;;;;-145.63;100.00;61273.97;4780612;30;20095;-65
2023/01/01 05:23:16;;;;;;;10.02;8.25;;;;;;;-145.63;100.00;61273.97;4787183;30;20051;-66
2023/01/01 05:25:41;;;;;;;9.40;8.18;;;;;;;-145.63;100.00;61273.97;4779350;30;20055;-66
2023/01/01 05:28:07;;;;;;;11.02;8.32;;;;;;;-145.63;100.00;61273.97;4780697;30;20047;-66
2023/01/01 05:30:32;;;;;;;10.77;8.27;;;;;;;-145.63;100.00;61273.97;4780034;30;20035;-66
2023/01/01 05:32:58;;;;;;;9.00;8.00;;;;;;;-145.63;100.00;61273.97;4780310;30;20031;-65
2023/01/01 05:35:23;;;;;;;11.15;9.02;;;;;;;-145.63;100.00;61273.97;4780235;30;20355;-65
2023/01/01 05:37:50;;;;;;;10.43;7.97;;;;;;;-145.63;100.00;61273.97;4780102;30;20101;-66
2023/01/01 05:40:16;;;;;;;10.57;8.00;;;;;;;-145.63;100.00;61273.97;4780354;30;20046;-66
2023/01/01 05:42:42;;;;;;;10.77;8.27;;;;;;;-145.63;100.00;61273.97;4780237;30;20220;-65
2023/01/01 05:45:08;;;;;;;9.88;7.78;;;;;;;-145.63;100.00;61273.97;4779805;30;20043;-65
2023/01/01 05:47:33;;;;;;;9.25;7.28;;;;;;;-145.63;100.00;61273.97;4780647;30;20051;-65
2023/01/01 05:49:59;;;;;;;10.85;7.68;;;;;;;-145.63;100.00;61273.97;4779752;30;20039;-65
2023/01/01 05:52:25;;;;;;;9.15;7.68;;;;;;;-145.63;100.00;61273.97;4780136;30;20031;-64
2023/01/01 05:54:50;;;;;;;9.40;8.10;;;;;;;-145.63;100.00;61273.97;4779919;30;20035;-65
2023/01/01 05:57:16;;;;;;;9.05;8.00;;;;;;;-145.63;100.00;61273.97;4780113;30;20028;-67
2023/01/01 05:59:41;;;;;;;8.98;7.88;;;;;;;-145.63;100.00;61273.97;4779945;30;20067;-65
2023/01/01 06:02:07;;;;;;;10.85;8.80;;;;;;;-145.63;100.00;61273.97;4779966;30;20043;-65
2023/01/01 06:04:32;;;;;;;9.07;7.85;;;;;;;-145.63;100.00;61273.97;4780031;30;20032;-66
2023/01/01 06:06:58;;;;;;;9.45;8.30;;;;;;;-145.63;100.00;61273.97;4780005;30;20103;-65
2023/01/01 06:09:23;;;;;;;11.30;8.70;;;;;;;-145.63;100.00;61273.97;4780104;30;20054;-66
2023/01/01 06:11:49;;;;;;;9.60;8.07;;;;;;;-145.63;100.00;61273.97;4779992;30;20085;-65
2023/01/01 06:14:14;;;;;;;11.38;8.73;;;;;;;-145.63;100.00;61273.97;4782766;30;20073;-64
2023/01/01 06:16:41;;;;;;;10.32;8.50;;;;;;;-145.63;100.00;61273.97;4773299;30;20331;-66
2023/01/01 06:19:07;;;;;;;9.10;7.80;;;;;;;-145.63;100.00;61273.97;4767301;30;20108;-67
2023/01/01 06:21:32;;;;;;;9.05;8.02;;;;;;;-145.63;100.00;61273.97;4789829;30;20032;-66
2023/01/01 06:23:59;;;;;;;8.00;6.95;;;;;;;-145.63;100.00;61273.97;4785912;30;20051;-67
2023/01/01 06:26:30;;;;;;;8.43;7.53;;;;;;;-145.63;100.00;61273.97;4777853;30;20031;-68
2023/01/01 06:28:56;;;;;;;8.43;6.80;;;;;;;-145.63;100.00;61273.97;4779850;30;20032;-68
2023/01/01 06:31:22;;;;;;;8.05;6.72;;;;;;;-145.63;100.00;61273.97;4779737;30;20246;-67
2023/01/01 06:33:49;;;;;;;7.38;6.68;;;;;;;-145.63;100.00;61273.97;4779682;30;20055;-67
2023/01/01 06:36:18;;;;;;;7.32;6.63;;;;;;;-145.63;100.00;61273.97;4778309;30;20046;-67
2023/01/01 06:38:45;;;;;;;6.60;6.00;;;;;;;-145.63;100.00;61273.97;4782798;30;20060;-67
2023/01/01 06:41:14;;;;;;;8.02;6.82;;;;;;;-145.63;100.00;61273.97;4788479;30;20258;-67
2023/01/01 06:43:40;;;;;;;7.10;6.40;;;;;;;-145.63;100.00;61273.97;4789202;29;20046;-66
2023/01/01 06:46:20;;;;;;;8.18;6.45;;;;;;;-145.63;100.00;61273.97;4791776;30;20039;-67
2023/01/01 06:48:52;;;;;;;7.22;6.22;;;;;;;-145.63;100.00;61273.97;4789749;30;20160;-66
2023/01/01 06:51:25;;;;;;;7.13;6.43;;;;;;;-145.63;100.00;61273.97;4788735;30;20047;-66
2023/01/01 06:53:52;;;;;;;7.50;6.70;;;;;;;-145.63;100.00;61273.97;4791947;30;20080;-67
2023/01/01 06:56:18;;;;;;;7.07;6.35;;;;;;;-145.63;100.00;61273.97;4796163;29;20059;-68
2023/01/01 06:58:44;;;;;;;7.82;6.80;;;;;;;-145.63;100.00;61273.97;4782803;30;20203;-66
2023/01/01 07:01:13;;;;;;;6.82;6.13;;;;;;;-145.63;100.00;61273.97;4782838;30;20254;-67
2023/01/01 07:03:39;;;;;;;8.02;6.22;;;;;;;-145.63;100.00;61273.97;4783427;30;20032;-67
2023/01/01 07:06:06;;;;;;;6.75;6.15;;;;;;;-145.63;100.00;61273.97;4782799;30;20028;-67
2023/01/01 07:08:32;;;;;;;6.38;5.78;;;;;;;-145.63;100.00;61273.97;4782836;30;20031;-67
2023/01/01 07:10:58;;;;;;;6.72;5.90;;;;;;;-145.63;100.00;61273.97;4782049;30;20098;-67
2023/01/01 07:13:24;;;;;;;6.68;5.97;;;;;;;-145.63;100.00;61273.97;4782157;30;20031;-67
2023/01/01 07:15:50;;;;;;;6.75;5.78;;;;;;;-145.63;100.00;61273.97;4782495;30;20367;-68
2023/01/01 07:18:15;;;;;;;7.13;5.82;;;;;;;-145.63;100.00;61273.97;4782313;30;20055;-67
2023/01/01 07:20:41;;;;;;;6.18;5.22;;;;;;;-145.63;100.00;61273.97;4782937;30;20035;-67
2023/01/01 07:23:10;;;;;;;7.28;5.90;;;;;;;-145.63;100.00;61273.97;4789767;30;20040;-67
2023/01/01 07:25:35;;;;;;;6.32;5.63;;;;;;;-145.63;100.00;61273.97;4782630;30;20039;-67
2023/01/01 07:28:01;;;;;;;5.57;5.07;;;;;;;-145.63;100.00;61273.97;4781743;30;20043;-68
2023/01/01 07:30:26;;;;;;;5.65;5.15;;;;;;;-145.63;100.00;61273.97;4782355;30;20040;-69
2023/01/01 07:32:55;;;;;;;7.13;6.43;;;;;;;-145.63;100.00;61273.97;4782215;30;20128;-68
2023/01/01 07:35:21;;;;;;;7.70;5.75;;;;;;;-145.63;100.00;61273.97;4782620;30;20032;-68
2023/01/01 07:37:47;;;;;;;7.68;5.57;;;;;;;-145.63;100.00;61273.97;4782637;30;20131;-68
2023/01/01 07:40:12;;;;;;;6.38;5.22;;;;;;;-145.63;100.00;61273.97;4782468;30;20036;-67
2023/01/01 07:42:38;;;;;;;6.50;5.70;;;;;;;-145.63;100.00;61273.97;4782431;30;20292;-68
2023/01/01 07:45:04;;;;;;;7.13;5.80;;;;;;;-145.63;100.00;61273.97;4782201;30;20035;-67
2023/01/01 07:47:30;;;;;;;5.55;5.07;;;;;;;-145.63;100.00;61273.97;4780838;30;20111;-68
2023/01/01 07:49:55;;;;;;;5.90;5.30;;;;;;;-145.63;100.00;61273.97;4795651;29;20039;-67
2023/01/01 07:52:21;;;;;;;6.63;5.72;;;;;;;-145.63;100.00;61273.97;4795944;29;20043;-69
2023/01/01 07:54:46;;;;;;;6.40;5.05;;;;;;;-145.63;100.00;61273.97;4796788;29;20108;-67
2023/01/01 07:57:12;;;;;;;6.40;5.20;;;;;;;-145.63;100.00;61273.97;4788901;29;20032;-67
2023/01/01 07:59:37;;;;;;;6.65;5.70;;;;;;;-145.63;100.00;61273.97;4781938;30;20158;-66
2023/01/01 08:02:03;;;;;;;6.40;5.43;;;;;;;-145.63;100.00;61273.97;4781798;30;20040;-67
2023/01/01 08:04:29;;;;;;;7.15;5.20;;;;;;;-145.63;100.00;61273.97;4782022;30;20091;-67
2023/01/01 08:06:55;;;;;;;5.60;5.10;;;;;;;-145.63;100.00;61273.97;4780678;30;20059;-68
2023/01/01 08:09:20;;;;;;;6.03;5.32;;;;;;;-145.63;100.00;61273.97;4781535;30;20035;-68
2023/01/01 08:11:46;;;;;;;5.97;5.32;;;;;;;-145.63;100.00;61273.97;4782343;30;20039;-67
2023/01/01 08:14:12;;;;;;;7.03;5.20;;;;;;;-145.63;100.00;61273.97;4796401;29;20051;-67
2023/01/01 08:16:38;;;;;;;8.95;5.22;;;;;;;-145.63;100.00;61273.97;4781956;30;20266;-67
2023/01/01 08:19:04;;;;;;;5.78;5.22;;;;;;;-145.63;100.00;61273.97;4781668;30;20043;-67
2023/01/01 08:21:30;;;;;;;7.70;6.07;;;;;;;-145.63;100.00;61273.97;4781564;30;20078;-68
2023/01/01 08:23:56;;;;;;;6.32;5.68;;;;;;;-145.63;100.00;61273.97;4789127;30;20104;-68
2023/01/01 08:26:32;;;;;;;8.20;5.25;;;;;;;-145.63;100.00;61273.97;4781337;30;20052;-68
2023/01/01 08:28:58;;;;;;;7.15;5.90;;;;;;;-145.63;100.00;61273.97;4781499;30;20062;-67
2023/01/01 08:31:24;;;;;;;7.32;5.60;;;;;;;-145.63;100.00;61273.97;4781522;30;20391;-67
2023/01/01 08:33:50;;;;;;;6.97;5.45;;;;;;;-145.63;100.00;61273.97;4781324;30;20101;-68
2023/01/01 08:36:15;;;;;;;5.40;4.90;;;;;;;-145.63;100.00;61273.97;4781650;30;20050;-67
2023/01/01 08:38:42;;;;;;;6.00;4.97;;;;;;;-145.63;100.00;61273.97;4781374;30;20043;-68
2023/01/01 08:41:08;;;;;;;8.65;6.00;;;;;;;-145.63;100.00;61273.97;4781139;30;20058;-66
2023/01/01 08:43:34;;;;;;;6.55;4.82;;;;;;;-145.63;100.00;61273.97;4781066;30;20044;-68
2023/01/01 08:46:00;;;;;;;7.85;6.10;;;;;;;-145.63;100.00;61273.97;4780983;30;20365;-68
2023/01/01 08:48:25;;;;;;;6.65;5.80;;;;;;;-145.63;100.00;61273.97;4780936;30;20052;-67
2023/01/01 08:50:52;;;;;;;7.10;5.95;;;;;;;-145.63;100.00;61273.97;4780932;30;20036;-67
2023/01/01 08:53:18;;;;;;;7.00;6.18;;;;;;;-145.63;100.00;61273.97;4784991;30;20020;-68
2023/01/01 08:55:43;;;;;;;8.90;6.25;;;;;;;-145.63;100.00;61273.97;4797663;30;20138;-68
2023/01/01 08:58:09;;;;;;;7.90;6.95;;;;;;;-145.63;100.00;61273.97;4780054;30;20047;-68
2023/01/01 09:00:35;;;;;;;8.27;5.88;;;;;;;-145.63;100.00;61273.97;4781017;30;20319;-68
2023/01/01 09:03:00;;;;;;;8.70;6.68;;;;;;;-145.63;100.00;61273.97;4780669;30;20246;-68
2023/01/01 09:05:26;;;;;;;9.80;6.93;;;;;;;-145.63;100.00;61273.97;4780395;30;20055;-68
2023/01/01 09:07:51;;;;;;;7.40;6.20;;;;;;;-145.63;100.00;61273.97;4780599;30;20042;-68
2023/01/01 09:10:17;;;;;;;9.35;6.57;;;;;;;-145.63;100.00;61273.97;4780998;30;20088;-68
2023/01/01 09:12:43;;;;;;;9.40;6.68;;;;;;;-145.63;100.00;61273.97;4780651;30;20039;-69
2023/01/01 09:15:14;;;;;;;7.35;6.53;;;;;;;-145.63;100.00;61273.97;4779200;30;20075;-68
2023/01/01 09:17:40;;;;;;;8.25;7.05;;;;;;;-145.63;100.00;61273.97;4780598;30;20031;-68
2023/01/01 09:20:06;;;;;;;7.63;6.85;;;;;;;-145.63;100.00;61273.97;4779753;30;20036;-67
2023/01/01 09:22:32;;;;;;;9.93;6.78;;;;;;;-145.63;100.00;61273.97;4786705;30;20031;-67
2023/01/01 09:24:58;;;;;;;8.77;6.53;;;;;;;-145.63;100.00;61273.97;4782456;29;20031;-68
2023/01/01 09:27:23;;;;;;;9.10;7.45;;;;;;;-145.63;100.00;61273.97;4780281;30;20059;-68
2023/01/01 09:29:49;;;;;;;8.73;6.72;;;;;;;-145.63;100.00;61273.97;4780306;30;20078;-67
2023/01/01 09:32:15;;;;;;;9.50;7.20;;;;;;;-145.63;100.00;61273.97;4780297;30;20039;-67
2023/01/01 09:34:40;;;;;;;9.35;7.72;;;;;;;-145.63;100.00;61273.97;4780439;30;20108;-68
2023/01/01 09:37:06;;;;;;;9.23;6.65;;;;;;;-145.63;100.00;61273.97;4779193;30;20081;-68
2023/01/01 09:39:32;;;;;;;9.25;7.35;;;;;;;-145.63;100.00;61273.97;4780126;30;20250;-67
2023/01/01 09:42:43;;;;;;;8.57;7.35;;;;;;;-145.63;100.00;61273.97;4778840;30;20036;-67
2023/01/01 09:45:27;;;;;;;10.35;7.07;;;;;;;-145.63;100.00;61273.97;4775191;30;20212;-67
2023/01/01 09:47:58;;;;;;;9.48;7.05;;;;;;;-145.63;100.00;61273.97;4779879;30;20292;-67
2023/01/01 09:50:34;;;;;;;9.57;7.05;;;;;;;-145.63;100.00;61273.97;4780260;30;20043;-68
2023/01/01 09:53:05;;;;;;;9.23;7.35;;;;;;;-145.63;100.00;61273.97;4782984;30;20028;-67
2023/01/01 09:55:55;;;;;;;10.50;7.65;;;;;;;-145.63;100.00;61273.97;4798148;29;20052;-68
2023/01/01 09:58:25;;;;;;;9.20;7.68;;;;;;;-145.63;100.00;61273.97;4762532;30;20036;-68
2023/01/01 10:00:58;;;;;;;12.02;8.60;;;;;;;-145.63;100.00;61273.97;4775677;30;20043;-67
2023/01/01 10:03:53;;;;;;;10.98;8.40;;;;;;;-145.63;100.00;61273.97;4778830;30;20574;-67
2023/01/01 10:06:24;;;;;;;10.98;7.82;;;;;;;-145.63;100.00;61273.97;4780070;30;20050;-68
2023/01/01 10:09:33;;;;;;;10.10;8.15;;;;;;;-145.63;100.00;61273.97;4779802;30;20107;-68
2023/01/01 10:12:30;;;;;;;13.82;8.23;;;;;;;-145.63;100.00;61273.97;4759316;30;20078;-68
2023/01/01 10:15:28;;;;;;;8.05;6.78;;;;;;;-145.63;100.00;61273.97;4779678;30;20108;-67
2023/01/01 10:18:02;;;;;;;7.75;6.55;;;;;;;-145.63;100.00;61273.97;4774847;30;20066;-66
2023/01/01 10:21:00;;;;;;;10.15;8.05;;;;;;;-145.63;100.00;61273.97;4783569;30;20059;-68
2023/01/01 10:23:32;;;;;;;10.85;8.40;;;;;;;-145.63;100.00;61273.97;4785226;30;20047;-67
2023/01/01 10:26:11;;;;;;;8.00;7.20;;;;;;;-145.63;100.00;61273.97;4783563;30;20036;-67
2023/01/01 10:28:48;;;;;;;9.32;7.47;;;;;;;-145.63;100.00;61273.97;4783485;30;20089;-67
2023/01/01 10:31:17;;;;;;;8.73;7.13;;;;;;;-145.63;100.00;61273.97;4796984;30;20111;-68
2023/01/01 10:33:44;;;;;;;10.85;7.93;;;;;;;-145.63;100.00;61273.97;4783469;30;20058;-67
2023/01/01 10:36:13;;;;;;;10.40;7.32;;;;;;;-145.63;100.00;61273.97;4781907;30;20151;-67
2023/01/01 10:38:39;;;;;;;8.75;7.63;;;;;;;-145.63;100.00;61273.97;4783085;30;20081;-67
2023/01/01 10:41:10;;;;;;;10.65;7.78;;;;;;;-145.63;100.00;61273.97;4783545;30;20222;-67
2023/01/01 10:43:36;;;;;;;8.65;6.97;;;;;;;-145.63;100.00;61273.97;4783112;30;20040;-67
2023/01/01 10:46:03;;;;;;;10.27;7.90;;;;;;;-145.63;100.00;61273.97;4783089;30;20040;-68
2023/01/01 10:48:30;;;;;;;9.43;7.70;;;;;;;-145.63;100.00;61273.97;4783087;30;20055;-68
2023/01/01 10:51:05;;;;;;;8.50;7.18;;;;;;;-145.63;100.00;61273.97;4782931;30;20066;-67
2023/01/01 10:53:36;;;;;;;8.32;7.15;;;;;;;-145.63;100.00;61273.97;4789515;30;20223;-67
2023/01/01 10:56:13;;;;;;;8.13;6.78;;;;;;;-145.63;100.00;61273.97;4799919;29;20030;-67
2023/01/01 10:58:45;;;;;;;9.27;7.20;;;;;;;-145.63;100.00;61273.97;4781733;30;20035;-66
2023/01/01 11:01:32;;;;;;;7.50;6.63;;;;;;;-145.63;100.00;61273.97;4782722;30;20043;-66
2023/01/01 11:04:12;;;;;;;8.07;7.10;;;;;;;-145.63;100.00;61273.97;4782252;30;20051;-68
2023/01/01 11:06:44;;;;;;;7.80;6.53;;;;;;;-145.63;100.00;61273.97;4782878;30;20239;-67
2023/01/01 11:09:25;;;;;;;;;;;;;;;-145.63;100.00;61273.97;4782484;30;20101;-67
2023/01/01 11:11:59;;;;;;;7.93;6.80;;;;;;;-145.63;100.00;61273.97;4782570;30;19954;-67
2023/01/01 11:14:28;;;;;;;8.65;6.50;;;;;;;-145.63;100.00;61273.97;4781286;30;20050;-67
2023/01/01 11:16:56;;;;;;;11.00;6.82;;;;;;;-145.63;100.00;61273.97;4782473;30;20108;-68
2023/01/01 11:19:40;;;;;;;8.30;6.43;;;;;;;-145.63;100.00;61273.97;4782549;30;20024;-67
2023/01/01 11:22:06;;;;;;;9.30;6.05;;;;;;;-145.63;100.00;61273.97;4785182;30;20027;-67
2023/01/01 11:24:33;;;;;;;6.80;6.10;;;;;;;-145.63;100.00;61273.97;4788619;29;20027;-68